Terminal Aerodrome Forecast
Issued by NWS

Home | Current Version | Previous Version | Text Only | Print | Product List | Glossary On
Versions: 1 2 3 4 5 6 7 8 9 10 11 12
000
FTUS46 KSGX 061120
TAFTRM
TAF
KTRM 061120Z 0612/0712 VRB05KT P6SM SKC
     FM061900 13010KT P6SM SKC
     FM070400 33013KT P6SM SKC
     FM071000 33007KT P6SM SKC=

USA.gov is the U.S. government's official web portal to all federal, state and local government web resources and services.